This is the latest recevied weather packets stored in our database for station/object F5TND-3. If no packets are shown the sender has not sent any weather packets the latest 10 day(s).
| Time | Temp. | Humidity | Pressure | Rain* | Wind** | Luminosity | Snow |
|---|---|---|---|---|---|---|---|
| 1787860769 | 18.89° C | 100% | 1007.2 hPa | - | - | - | - |
| 1787859569 | 18.89° C | 100% | 1007 hPa | - | - | - | - |
| 1787858369 | 18.89° C | 100% | 1006.7 hPa | - | - | - | - |
| 1787857169 | 18.89° C | 100% | 1006.1 hPa | - | - | - | - |
| 1787854769 | 20.56° C | 80% | 1006.3 hPa | - | - | - | - |
| 1787853569 | 23.89° C | 64% | 1006.4 hPa | - | - | - | - |
| 1787852358 | 24.44° C | 61% | 1006.6 hPa | - | - | - | - |
| 1787851157 | 21.11° C | 77% | 1006.8 hPa | - | - | - | - |
| 1787849957 | 22.22° C | 73% | 1006.7 hPa | - | - | - | - |
| 1787847557 | 23.33° C | 63% | 1006.7 hPa | - | - | - | - |
| 1787846357 | 24.44° C | 56% | 1006.8 hPa | - | - | - | - |
| 1787845156 | 25.56° C | 52% | 1006.8 hPa | - | - | - | - |
| 1787841556 | 25.56° C | 54% | 1007.2 hPa | - | - | - | - |
| 1787840357 | 26.67° C | 52% | 1007.2 hPa | - | - | - | - |
| 1787837958 | 25.56° C | 54% | 1007.4 hPa | - | - | - | - |
| 1787835556 | 25° C | 73% | 1008.3 hPa | - | - | - | - |
| 1787834356 | 22.22° C | 100% | 1007.9 hPa | - | - | - | - |
| 1787833157 | 22.78° C | 100% | 1007.6 hPa | - | - | - | - |
| 1787831956 | 21.67° C | 100% | 1007.4 hPa | - | - | - | - |
| 1787830757 | 20° C | 100% | 1008.1 hPa | - | - | - | - |
| 1787829557 | 21.11° C | 100% | 1007.6 hPa | - | - | - | - |
| 1787827158 | 20.56° C | 100% | 1007.8 hPa | - | - | - | - |
| 1787825957 | 20° C | 100% | 1008.2 hPa | - | - | - | - |
| 1787824757 | 20° C | 100% | 1008 hPa | - | - | - | - |
| 1787823557 | 20.56° C | 100% | 1007.9 hPa | - | - | - | - |
* Rain since midnight (hover to see other rain measurements)
** Current wind speed in m/s (hover to see current wind gust speed)